sensor_id;sensor_type;location;lat;lon;timestamp;P1;durP1;ratioP1;P2;durP2;ratioP2
56824;SDS011;42705;50.326;18.772;2023-02-15T00:01:42;45.70;;;24.20;;
56824;SDS011;42705;50.326;18.772;2023-02-15T00:07:03;44.40;;;22.40;;
56824;SDS011;42705;50.326;18.772;2023-02-15T00:12:24;43.10;;;23.50;;
56824;SDS011;42705;50.326;18.772;2023-02-15T00:17:46;43.50;;;23.30;;
56824;SDS011;42705;50.326;18.772;2023-02-15T00:23:07;43.20;;;22.50;;
56824;SDS011;42705;50.326;18.772;2023-02-15T00:28:29;41.30;;;22.80;;
56824;SDS011;42705;50.326;18.772;2023-02-15T00:33:54;47.20;;;24.40;;
56824;SDS011;42705;50.326;18.772;2023-02-15T00:39:15;48.10;;;23.90;;
56824;SDS011;42705;50.326;18.772;2023-02-15T00:49:59;50.00;;;25.70;;
56824;SDS011;42705;50.326;18.772;2023-02-15T00:55:20;60.10;;;28.40;;
56824;SDS011;42705;50.326;18.772;2023-02-15T01:00:42;53.60;;;25.40;;
56824;SDS011;42705;50.326;18.772;2023-02-15T01:06:05;44.50;;;23.60;;
56824;SDS011;42705;50.326;18.772;2023-02-15T01:11:26;44.20;;;23.10;;
56824;SDS011;42705;50.326;18.772;2023-02-15T01:16:47;41.60;;;21.50;;
56824;SDS011;42705;50.326;18.772;2023-02-15T01:22:08;40.60;;;22.30;;
56824;SDS011;42705;50.326;18.772;2023-02-15T01:27:30;36.50;;;21.80;;
56824;SDS011;42705;50.326;18.772;2023-02-15T01:32:51;42.40;;;23.50;;
56824;SDS011;42705;50.326;18.772;2023-02-15T01:38:13;38.00;;;21.80;;
56824;SDS011;42705;50.326;18.772;2023-02-15T01:43:42;37.90;;;20.30;;
56824;SDS011;42705;50.326;18.772;2023-02-15T01:49:13;37.50;;;20.50;;
56824;SDS011;42705;50.326;18.772;2023-02-15T01:54:37;39.60;;;22.30;;
56824;SDS011;42705;50.326;18.772;2023-02-15T02:00:02;43.40;;;24.40;;
56824;SDS011;42705;50.326;18.772;2023-02-15T02:05:33;41.30;;;23.90;;
56824;SDS011;42705;50.326;18.772;2023-02-15T02:10:55;35.40;;;21.80;;
56824;SDS011;42705;50.326;18.772;2023-02-15T02:28:01;33.50;;;18.80;;
56824;SDS011;42705;50.326;18.772;2023-02-15T02:50:59;26.90;;;16.50;;
56824;SDS011;42705;50.326;18.772;2023-02-15T02:56:23;36.50;;;20.30;;
56824;SDS011;42705;50.326;18.772;2023-02-15T03:02:07;33.60;;;18.50;;
56824;SDS011;42705;50.326;18.772;2023-02-15T03:07:41;27.70;;;16.50;;
56824;SDS011;42705;50.326;18.772;2023-02-15T03:13:04;28.80;;;18.00;;
56824;SDS011;42705;50.326;18.772;2023-02-15T03:18:28;31.40;;;18.10;;
56824;SDS011;42705;50.326;18.772;2023-02-15T03:24:00;33.50;;;18.50;;
56824;SDS011;42705;50.326;18.772;2023-02-15T03:29:28;40.60;;;21.70;;
56824;SDS011;42705;50.326;18.772;2023-02-15T03:34:54;38.30;;;19.80;;
56824;SDS011;42705;50.326;18.772;2023-02-15T03:40:23;29.90;;;17.10;;
56824;SDS011;42705;50.326;18.772;2023-02-15T03:46:21;30.00;;;16.40;;
56824;SDS011;42705;50.326;18.772;2023-02-15T03:51:46;30.20;;;17.40;;
56824;SDS011;42705;50.326;18.772;2023-02-15T03:57:11;34.30;;;19.30;;
56824;SDS011;42705;50.326;18.772;2023-02-15T04:08:31;30.30;;;18.40;;
56824;SDS011;42705;50.326;18.772;2023-02-15T04:14:11;22.40;;;13.20;;
56824;SDS011;42705;50.326;18.772;2023-02-15T04:19:51;28.90;;;16.50;;
56824;SDS011;42705;50.326;18.772;2023-02-15T04:25:33;29.60;;;17.40;;
56824;SDS011;42705;50.326;18.772;2023-02-15T04:30:54;20.60;;;12.60;;
56824;SDS011;42705;50.326;18.772;2023-02-15T04:36:15;26.40;;;14.30;;
56824;SDS011;42705;50.326;18.772;2023-02-15T04:41:36;30.40;;;17.10;;
56824;SDS011;42705;50.326;18.772;2023-02-15T04:46:57;26.70;;;14.40;;
56824;SDS011;42705;50.326;18.772;2023-02-15T04:52:18;27.60;;;16.60;;
56824;SDS011;42705;50.326;18.772;2023-02-15T04:57:40;29.70;;;17.40;;
56824;SDS011;42705;50.326;18.772;2023-02-15T05:03:01;34.00;;;18.20;;
56824;SDS011;42705;50.326;18.772;2023-02-15T05:08:22;35.30;;;19.30;;
56824;SDS011;42705;50.326;18.772;2023-02-15T05:13:43;32.30;;;18.80;;
56824;SDS011;42705;50.326;18.772;2023-02-15T05:19:04;29.70;;;16.20;;
56824;SDS011;42705;50.326;18.772;2023-02-15T05:24:25;30.00;;;17.60;;
56824;SDS011;42705;50.326;18.772;2023-02-15T05:30:06;20.60;;;10.80;;
56824;SDS011;42705;50.326;18.772;2023-02-15T05:35:32;29.10;;;17.70;;
56824;SDS011;42705;50.326;18.772;2023-02-15T05:40:55;32.10;;;16.90;;
56824;SDS011;42705;50.326;18.772;2023-02-15T05:46:16;27.80;;;15.20;;
56824;SDS011;42705;50.326;18.772;2023-02-15T05:51:37;30.10;;;17.50;;
56824;SDS011;42705;50.326;18.772;2023-02-15T05:56:58;32.70;;;17.10;;
56824;SDS011;42705;50.326;18.772;2023-02-15T06:02:19;39.70;;;20.60;;
56824;SDS011;42705;50.326;18.772;2023-02-15T06:07:42;34.10;;;18.70;;
56824;SDS011;42705;50.326;18.772;2023-02-15T06:13:05;31.20;;;16.30;;
56824;SDS011;42705;50.326;18.772;2023-02-15T06:18:27;31.80;;;16.60;;
56824;SDS011;42705;50.326;18.772;2023-02-15T06:23:48;33.50;;;16.70;;
56824;SDS011;42705;50.326;18.772;2023-02-15T06:29:10;31.80;;;16.80;;
56824;SDS011;42705;50.326;18.772;2023-02-15T06:34:31;32.60;;;18.20;;
56824;SDS011;42705;50.326;18.772;2023-02-15T06:39:53;38.30;;;19.50;;
56824;SDS011;42705;50.326;18.772;2023-02-15T06:45:14;32.60;;;16.70;;
56824;SDS011;42705;50.326;18.772;2023-02-15T06:50:36;35.80;;;19.40;;
56824;SDS011;42705;50.326;18.772;2023-02-15T06:56:01;37.80;;;19.00;;
56824;SDS011;42705;50.326;18.772;2023-02-15T07:01:27;35.50;;;17.50;;
56824;SDS011;42705;50.326;18.772;2023-02-15T07:06:48;41.80;;;22.10;;
56824;SDS011;42705;50.326;18.772;2023-02-15T07:12:10;36.10;;;17.00;;
56824;SDS011;42705;50.326;18.772;2023-02-15T07:17:50;40.50;;;20.20;;
56824;SDS011;42705;50.326;18.772;2023-02-15T07:23:11;43.30;;;21.00;;
56824;SDS011;42705;50.326;18.772;2023-02-15T07:28:33;34.10;;;17.60;;
56824;SDS011;42705;50.326;18.772;2023-02-15T07:33:55;43.90;;;20.00;;
56824;SDS011;42705;50.326;18.772;2023-02-15T07:39:16;48.50;;;21.30;;
56824;SDS011;42705;50.326;18.772;2023-02-15T07:44:38;40.50;;;19.40;;
56824;SDS011;42705;50.326;18.772;2023-02-15T07:49:59;44.00;;;21.10;;
56824;SDS011;42705;50.326;18.772;2023-02-15T07:55:20;47.90;;;23.40;;
56824;SDS011;42705;50.326;18.772;2023-02-15T08:00:41;49.60;;;24.00;;
56824;SDS011;42705;50.326;18.772;2023-02-15T08:06:18;46.50;;;22.20;;
56824;SDS011;42705;50.326;18.772;2023-02-15T08:11:39;46.30;;;22.40;;
56824;SDS011;42705;50.326;18.772;2023-02-15T08:17:01;41.20;;;21.10;;
56824;SDS011;42705;50.326;18.772;2023-02-15T08:22:25;46.10;;;21.90;;
56824;SDS011;42705;50.326;18.772;2023-02-15T08:27:47;39.20;;;19.70;;
56824;SDS011;42705;50.326;18.772;2023-02-15T08:33:08;40.70;;;21.10;;
56824;SDS011;42705;50.326;18.772;2023-02-15T08:38:30;39.90;;;21.30;;
56824;SDS011;42705;50.326;18.772;2023-02-15T08:43:53;41.40;;;20.90;;
56824;SDS011;42705;50.326;18.772;2023-02-15T08:54:40;33.80;;;19.20;;
56824;SDS011;42705;50.326;18.772;2023-02-15T09:00:02;38.30;;;20.10;;
56824;SDS011;42705;50.326;18.772;2023-02-15T09:05:25;42.00;;;22.00;;
56824;SDS011;42705;50.326;18.772;2023-02-15T09:10:47;37.80;;;20.60;;
56824;SDS011;42705;50.326;18.772;2023-02-15T09:16:08;42.00;;;22.00;;
56824;SDS011;42705;50.326;18.772;2023-02-15T09:21:31;45.80;;;25.00;;
56824;SDS011;42705;50.326;18.772;2023-02-15T09:26:54;42.70;;;22.70;;
56824;SDS011;42705;50.326;18.772;2023-02-15T09:32:15;46.60;;;23.60;;
56824;SDS011;42705;50.326;18.772;2023-02-15T09:37:38;39.90;;;20.60;;
56824;SDS011;42705;50.326;18.772;2023-02-15T09:48:47;36.20;;;19.10;;
56824;SDS011;42705;50.326;18.772;2023-02-15T10:00:12;40.30;;;20.00;;
56824;SDS011;42705;50.326;18.772;2023-02-15T10:05:52;33.80;;;18.70;;
56824;SDS011;42705;50.326;18.772;2023-02-15T10:17:06;26.70;;;14.20;;
56824;SDS011;42705;50.326;18.772;2023-02-15T10:28:22;35.90;;;17.80;;
56824;SDS011;42705;50.326;18.772;2023-02-15T10:33:47;32.60;;;17.80;;
56824;SDS011;42705;50.326;18.772;2023-02-15T11:01:51;25.10;;;14.70;;
56824;SDS011;42705;50.326;18.772;2023-02-15T11:07:17;31.90;;;17.00;;
56824;SDS011;42705;50.326;18.772;2023-02-15T11:12:43;32.20;;;16.90;;
56824;SDS011;42705;50.326;18.772;2023-02-15T11:18:19;32.70;;;16.90;;
56824;SDS011;42705;50.326;18.772;2023-02-15T11:23:48;27.60;;;15.70;;
56824;SDS011;42705;50.326;18.772;2023-02-15T11:40:43;27.60;;;16.60;;
56824;SDS011;42705;50.326;18.772;2023-02-15T11:46:10;27.60;;;14.90;;
56824;SDS011;42705;50.326;18.772;2023-02-15T11:51:33;28.70;;;15.90;;
56824;SDS011;42705;50.326;18.772;2023-02-15T11:56:56;29.40;;;15.30;;
56824;SDS011;42705;50.326;18.772;2023-02-15T12:02:31;28.40;;;15.70;;
56824;SDS011;42705;50.326;18.772;2023-02-15T12:08:31;28.50;;;15.60;;
56824;SDS011;42705;50.326;18.772;2023-02-15T12:13:58;29.50;;;15.90;;
56824;SDS011;42705;50.326;18.772;2023-02-15T12:24:48;25.30;;;15.10;;
56824;SDS011;42705;50.326;18.772;2023-02-15T12:30:46;27.00;;;16.80;;
56824;SDS011;42705;50.326;18.772;2023-02-15T12:36:08;27.30;;;17.80;;
56824;SDS011;42705;50.326;18.772;2023-02-15T12:41:32;25.10;;;17.40;;
56824;SDS011;42705;50.326;18.772;2023-02-15T12:52:48;25.70;;;19.90;;
56824;SDS011;42705;50.326;18.772;2023-02-15T12:58:18;25.40;;;20.20;;
56824;SDS011;42705;50.326;18.772;2023-02-15T13:04:03;26.30;;;20.20;;
56824;SDS011;42705;50.326;18.772;2023-02-15T13:14:52;21.50;;;19.30;;
56824;SDS011;42705;50.326;18.772;2023-02-15T13:20:16;22.60;;;20.10;;
56824;SDS011;42705;50.326;18.772;2023-02-15T13:25:44;21.00;;;18.80;;
56824;SDS011;42705;50.326;18.772;2023-02-15T13:31:21;21.80;;;19.40;;
56824;SDS011;42705;50.326;18.772;2023-02-15T13:42:20;24.50;;;21.10;;
56824;SDS011;42705;50.326;18.772;2023-02-15T14:21:27;21.00;;;17.60;;
56824;SDS011;42705;50.326;18.772;2023-02-15T14:44:23;20.40;;;15.50;;
56824;SDS011;42705;50.326;18.772;2023-02-15T14:49:56;24.40;;;17.50;;
56824;SDS011;42705;50.326;18.772;2023-02-15T14:55:34;23.10;;;17.00;;
56824;SDS011;42705;50.326;18.772;2023-02-15T15:01:07;22.00;;;17.00;;
56824;SDS011;42705;50.326;18.772;2023-02-15T15:11:54;26.50;;;18.00;;
56824;SDS011;42705;50.326;18.772;2023-02-15T15:50:48;38.50;;;21.30;;
56824;SDS011;42705;50.326;18.772;2023-02-15T15:56:17;44.30;;;22.10;;
56824;SDS011;42705;50.326;18.772;2023-02-15T16:01:42;33.40;;;19.20;;
56824;SDS011;42705;50.326;18.772;2023-02-15T16:12:38;54.50;;;23.50;;
56824;SDS011;42705;50.326;18.772;2023-02-15T16:18:00;34.40;;;18.20;;
56824;SDS011;42705;50.326;18.772;2023-02-15T16:34:17;35.40;;;17.40;;
56824;SDS011;42705;50.326;18.772;2023-02-15T16:39:42;38.50;;;19.60;;
56824;SDS011;42705;50.326;18.772;2023-02-15T16:50:34;48.30;;;22.20;;
56824;SDS011;42705;50.326;18.772;2023-02-15T16:56:02;52.80;;;23.80;;
56824;SDS011;42705;50.326;18.772;2023-02-15T17:01:27;62.50;;;27.30;;
56824;SDS011;42705;50.326;18.772;2023-02-15T17:23:33;57.90;;;28.10;;
56824;SDS011;42705;50.326;18.772;2023-02-15T17:34:45;57.10;;;26.40;;
56824;SDS011;42705;50.326;18.772;2023-02-15T17:40:23;62.80;;;29.60;;
56824;SDS011;42705;50.326;18.772;2023-02-15T17:45:48;60.80;;;28.50;;
56824;SDS011;42705;50.326;18.772;2023-02-15T17:51:11;61.40;;;27.70;;
56824;SDS011;42705;50.326;18.772;2023-02-15T17:56:35;67.20;;;29.10;;
56824;SDS011;42705;50.326;18.772;2023-02-15T18:01:57;62.50;;;27.00;;
56824;SDS011;42705;50.326;18.772;2023-02-15T18:07:37;65.80;;;29.10;;
56824;SDS011;42705;50.326;18.772;2023-02-15T18:13:17;54.30;;;24.20;;
56824;SDS011;42705;50.326;18.772;2023-02-15T18:18:38;59.30;;;26.30;;
56824;SDS011;42705;50.326;18.772;2023-02-15T18:23:59;58.90;;;28.20;;
56824;SDS011;42705;50.326;18.772;2023-02-15T18:29:21;72.50;;;32.30;;
56824;SDS011;42705;50.326;18.772;2023-02-15T18:34:42;69.20;;;31.20;;
56824;SDS011;42705;50.326;18.772;2023-02-15T18:40:12;71.10;;;30.80;;
56824;SDS011;42705;50.326;18.772;2023-02-15T18:45:36;69.80;;;32.70;;
56824;SDS011;42705;50.326;18.772;2023-02-15T18:50:58;80.40;;;35.00;;
56824;SDS011;42705;50.326;18.772;2023-02-15T18:56:21;76.20;;;32.70;;
56824;SDS011;42705;50.326;18.772;2023-02-15T19:01:43;95.30;;;37.10;;
56824;SDS011;42705;50.326;18.772;2023-02-15T19:07:04;86.10;;;36.40;;
56824;SDS011;42705;50.326;18.772;2023-02-15T19:12:29;87.50;;;37.30;;
56824;SDS011;42705;50.326;18.772;2023-02-15T19:17:53;91.10;;;37.40;;
56824;SDS011;42705;50.326;18.772;2023-02-15T19:23:20;84.70;;;35.30;;
56824;SDS011;42705;50.326;18.772;2023-02-15T19:28:43;91.30;;;38.40;;
56824;SDS011;42705;50.326;18.772;2023-02-15T19:34:10;87.70;;;36.70;;
56824;SDS011;42705;50.326;18.772;2023-02-15T19:39:36;77.50;;;34.60;;
56824;SDS011;42705;50.326;18.772;2023-02-15T19:44:59;81.70;;;35.50;;
56824;SDS011;42705;50.326;18.772;2023-02-15T19:50:22;75.70;;;32.60;;
56824;SDS011;42705;50.326;18.772;2023-02-15T19:55:45;67.30;;;29.10;;
56824;SDS011;42705;50.326;18.772;2023-02-15T20:01:07;79.20;;;32.30;;
56824;SDS011;42705;50.326;18.772;2023-02-15T20:06:28;74.40;;;29.60;;
56824;SDS011;42705;50.326;18.772;2023-02-15T20:11:55;84.30;;;34.90;;
56824;SDS011;42705;50.326;18.772;2023-02-15T20:17:16;80.20;;;34.90;;
56824;SDS011;42705;50.326;18.772;2023-02-15T20:22:37;72.70;;;32.10;;
56824;SDS011;42705;50.326;18.772;2023-02-15T20:28:00;77.90;;;32.90;;
56824;SDS011;42705;50.326;18.772;2023-02-15T20:33:22;81.70;;;35.10;;
56824;SDS011;42705;50.326;18.772;2023-02-15T20:38:43;74.40;;;29.90;;
56824;SDS011;42705;50.326;18.772;2023-02-15T20:44:19;68.60;;;28.50;;
56824;SDS011;42705;50.326;18.772;2023-02-15T20:49:40;77.60;;;32.40;;
56824;SDS011;42705;50.326;18.772;2023-02-15T20:55:01;73.00;;;31.80;;
56824;SDS011;42705;50.326;18.772;2023-02-15T21:00:25;72.40;;;29.90;;
56824;SDS011;42705;50.326;18.772;2023-02-15T21:05:49;62.20;;;27.80;;
56824;SDS011;42705;50.326;18.772;2023-02-15T21:11:17;73.10;;;30.30;;
56824;SDS011;42705;50.326;18.772;2023-02-15T21:16:40;72.50;;;29.30;;
56824;SDS011;42705;50.326;18.772;2023-02-15T21:22:02;62.60;;;28.00;;
56824;SDS011;42705;50.326;18.772;2023-02-15T21:27:23;58.50;;;24.30;;
56824;SDS011;42705;50.326;18.772;2023-02-15T21:32:44;75.30;;;29.70;;
56824;SDS011;42705;50.326;18.772;2023-02-15T21:38:05;69.80;;;29.40;;
56824;SDS011;42705;50.326;18.772;2023-02-15T21:43:27;73.30;;;28.70;;
56824;SDS011;42705;50.326;18.772;2023-02-15T21:49:07;72.90;;;28.80;;
56824;SDS011;42705;50.326;18.772;2023-02-15T21:54:30;71.40;;;29.70;;
56824;SDS011;42705;50.326;18.772;2023-02-15T21:59:51;73.90;;;27.30;;
56824;SDS011;42705;50.326;18.772;2023-02-15T22:05:13;68.80;;;26.40;;
56824;SDS011;42705;50.326;18.772;2023-02-15T22:10:37;63.90;;;26.30;;
56824;SDS011;42705;50.326;18.772;2023-02-15T22:15:59;62.20;;;26.60;;
56824;SDS011;42705;50.326;18.772;2023-02-15T22:21:20;67.30;;;28.20;;
56824;SDS011;42705;50.326;18.772;2023-02-15T22:26:42;63.90;;;26.60;;
56824;SDS011;42705;50.326;18.772;2023-02-15T22:32:03;62.90;;;26.20;;
56824;SDS011;42705;50.326;18.772;2023-02-15T22:37:24;76.30;;;30.90;;
56824;SDS011;42705;50.326;18.772;2023-02-15T22:42:46;63.70;;;25.30;;
56824;SDS011;42705;50.326;18.772;2023-02-15T22:48:09;63.80;;;26.10;;
56824;SDS011;42705;50.326;18.772;2023-02-15T22:53:31;72.50;;;27.50;;
56824;SDS011;42705;50.326;18.772;2023-02-15T22:58:54;65.90;;;27.80;;
56824;SDS011;42705;50.326;18.772;2023-02-15T23:04:22;55.20;;;23.20;;
56824;SDS011;42705;50.326;18.772;2023-02-15T23:09:45;68.20;;;27.30;;
56824;SDS011;42705;50.326;18.772;2023-02-15T23:15:09;62.80;;;25.10;;
56824;SDS011;42705;50.326;18.772;2023-02-15T23:20:31;68.40;;;26.60;;
56824;SDS011;42705;50.326;18.772;2023-02-15T23:25:52;66.00;;;26.40;;
56824;SDS011;42705;50.326;18.772;2023-02-15T23:31:23;63.10;;;27.20;;
56824;SDS011;42705;50.326;18.772;2023-02-15T23:42:08;65.10;;;26.40;;
56824;SDS011;42705;50.326;18.772;2023-02-15T23:53:12;61.60;;;25.50;;
56824;SDS011;42705;50.326;18.772;2023-02-15T23:58:35;71.70;;;26.90;;
